createdAt,value
2017-10-07T00:01:08.788Z,9.00
2017-10-07T00:03:36.307Z,8.65
2017-10-07T00:06:03.857Z,6.20
2017-10-07T00:08:31.370Z,10.13
2017-10-07T00:10:58.883Z,10.80
2017-10-07T00:13:26.424Z,8.50
2017-10-07T00:15:54.561Z,16.27
2017-10-07T00:18:22.353Z,7.35
2017-10-07T00:20:50.093Z,13.93
2017-10-07T00:23:17.592Z,7.25
2017-10-07T00:25:45.104Z,8.85
2017-10-07T00:28:12.803Z,7.65
2017-10-07T00:30:40.289Z,8.50
2017-10-07T00:33:07.809Z,8.35
2017-10-07T00:35:35.659Z,11.20
2017-10-07T00:38:03.217Z,8.30
2017-10-07T00:40:30.730Z,8.60
2017-10-07T00:42:58.262Z,10.18
2017-10-07T00:45:25.775Z,9.60
2017-10-07T00:47:54.055Z,7.80
2017-10-07T00:50:22.588Z,9.95
2017-10-07T00:52:50.077Z,8.45
2017-10-07T00:55:17.568Z,7.82
2017-10-07T00:57:45.095Z,5.72
2017-10-07T01:00:12.608Z,6.25
2017-10-07T01:02:40.129Z,13.55
2017-10-07T01:05:08.823Z,9.10
2017-10-07T01:07:36.772Z,8.20
2017-10-07T01:10:05.061Z,10.57
2017-10-07T01:12:33.385Z,10.88
2017-10-07T01:15:00.903Z,10.88
2017-10-07T01:17:28.471Z,7.72
2017-10-07T01:19:56.033Z,9.82
2017-10-07T01:22:23.559Z,8.57
2017-10-07T01:24:51.079Z,8.48
2017-10-07T01:27:18.639Z,5.62
2017-10-07T01:29:46.160Z,16.37
2017-10-07T01:32:14.419Z,7.25
2017-10-07T01:34:41.940Z,10.68
2017-10-07T01:37:09.864Z,9.50
2017-10-07T01:39:37.627Z,6.07
2017-10-07T01:42:05.920Z,9.82
2017-10-07T01:44:34.613Z,11.15
2017-10-07T01:47:02.115Z,7.32
2017-10-07T01:49:29.639Z,10.32
2017-10-07T01:51:57.134Z,14.13
2017-10-07T01:54:24.672Z,11.80
2017-10-07T01:56:52.211Z,8.38
2017-10-07T01:59:20.015Z,9.70
2017-10-07T02:01:47.524Z,8.15
2017-10-07T02:04:15.053Z,6.65
2017-10-07T02:06:43.319Z,7.50
2017-10-07T02:09:10.813Z,8.00
2017-10-07T02:11:38.772Z,7.75
2017-10-07T02:14:06.356Z,10.55
2017-10-07T02:16:33.876Z,11.57
2017-10-07T02:19:02.180Z,14.98
2017-10-07T02:21:29.692Z,7.32
2017-10-07T02:23:57.565Z,6.03
2017-10-07T02:26:25.189Z,7.97
2017-10-07T02:28:53.127Z,14.20
2017-10-07T02:31:20.697Z,11.32
2017-10-07T02:33:48.235Z,8.77
2017-10-07T02:36:16.524Z,12.10
2017-10-07T02:38:44.458Z,7.25
2017-10-07T02:41:12.215Z,12.90
2017-10-07T02:43:39.736Z,8.52
2017-10-07T02:46:07.236Z,8.68
2017-10-07T02:48:34.788Z,14.60
2017-10-07T02:51:02.288Z,13.77
2017-10-07T02:53:29.804Z,15.23
2017-10-07T02:55:57.329Z,8.57
2017-10-07T02:58:25.592Z,9.35
2017-10-07T03:00:53.149Z,12.05
2017-10-07T03:03:20.680Z,14.00
2017-10-07T03:05:48.948Z,11.50
2017-10-07T03:08:16.467Z,7.93
2017-10-07T03:10:43.985Z,11.10
2017-10-07T03:13:12.395Z,11.23
2017-10-07T03:15:39.904Z,21.23
2017-10-07T03:18:07.447Z,14.05
2017-10-07T03:20:34.974Z,14.07
2017-10-07T03:23:02.493Z,13.70
2017-10-07T03:25:30.782Z,8.25
2017-10-07T03:27:59.059Z,11.40
2017-10-07T03:30:26.569Z,7.93
2017-10-07T03:32:54.077Z,7.97
2017-10-07T03:35:21.785Z,8.88
2017-10-07T03:37:49.285Z,8.20
2017-10-07T03:40:17.586Z,9.15
2017-10-07T03:42:45.081Z,14.00
2017-10-07T03:45:12.573Z,9.70
2017-10-07T03:47:42.016Z,7.18
2017-10-07T03:50:09.547Z,5.60
2017-10-07T03:52:37.818Z,9.50
2017-10-07T03:55:06.163Z,8.02
2017-10-07T03:57:33.671Z,4.93
2017-10-07T04:00:01.871Z,11.65
2017-10-07T04:02:29.397Z,5.93
2017-10-07T04:04:57.670Z,7.47
2017-10-07T04:07:25.988Z,13.43
2017-10-07T04:09:53.594Z,12.57
2017-10-07T04:12:21.884Z,11.20
2017-10-07T04:14:50.156Z,7.95
2017-10-07T04:17:18.465Z,11.98
2017-10-07T04:19:45.971Z,7.22
2017-10-07T04:22:13.487Z,10.40
2017-10-07T04:24:41.796Z,9.77
2017-10-07T04:27:09.300Z,6.15
2017-10-07T04:29:36.815Z,7.60
2017-10-07T04:32:04.351Z,12.95
2017-10-07T04:34:31.906Z,6.97
2017-10-07T04:36:59.568Z,6.60
2017-10-07T04:39:27.127Z,7.85
2017-10-07T04:41:55.587Z,4.78
2017-10-07T04:44:23.297Z,8.45
2017-10-07T04:46:50.828Z,15.35
2017-10-07T04:49:18.336Z,6.00
2017-10-07T04:51:46.601Z,6.80
2017-10-07T04:54:14.119Z,6.75
2017-10-07T04:56:41.691Z,7.18
2017-10-07T04:59:09.202Z,8.75
2017-10-07T05:01:37.498Z,10.25
2017-10-07T05:04:05.013Z,5.55
2017-10-07T05:06:32.504Z,6.25
2017-10-07T05:09:00.824Z,11.90
2017-10-07T05:11:28.468Z,8.27
2017-10-07T05:13:56.910Z,14.55
2017-10-07T05:16:25.345Z,8.82
2017-10-07T05:18:52.852Z,5.87
2017-10-07T05:21:21.134Z,13.20
2017-10-07T05:23:48.660Z,9.40
2017-10-07T05:26:16.185Z,10.20
2017-10-07T05:28:43.680Z,5.80
2017-10-07T05:31:11.214Z,7.12
2017-10-07T05:33:39.480Z,5.45
2017-10-07T05:36:07.004Z,6.12
2017-10-07T05:38:34.559Z,6.78
2017-10-07T05:41:02.073Z,4.75
2017-10-07T05:43:29.585Z,8.80
2017-10-07T05:45:57.127Z,13.57
2017-10-07T05:48:25.401Z,7.72
2017-10-07T05:50:53.691Z,4.05
2017-10-07T05:53:22.014Z,10.65
2017-10-07T05:55:49.529Z,7.05
2017-10-07T05:58:17.042Z,7.65
2017-10-07T06:00:44.572Z,5.28
2017-10-07T06:03:12.089Z,6.55
2017-10-07T06:05:40.374Z,7.55
2017-10-07T06:08:09.323Z,8.75
2017-10-07T06:10:36.886Z,6.95
2017-10-07T06:13:04.418Z,8.38
2017-10-07T06:15:31.943Z,12.25
2017-10-07T06:18:00.791Z,4.45
2017-10-07T06:20:28.598Z,7.85
2017-10-07T06:22:56.128Z,10.55
2017-10-07T06:25:23.651Z,4.93
2017-10-07T06:27:51.170Z,8.45
2017-10-07T06:30:19.581Z,7.35
2017-10-07T06:32:47.134Z,12.88
2017-10-07T06:35:14.644Z,8.30
2017-10-07T06:37:42.145Z,9.88
2017-10-07T06:40:09.687Z,7.18
2017-10-07T06:42:38.641Z,6.80
2017-10-07T06:45:07.048Z,6.70
2017-10-07T06:47:35.335Z,9.73
2017-10-07T06:50:03.658Z,8.85
2017-10-07T06:52:31.173Z,8.43
2017-10-07T06:54:59.497Z,8.48
2017-10-07T06:57:27.007Z,7.95
2017-10-07T06:59:55.216Z,9.50
2017-10-07T07:02:22.769Z,7.45
2017-10-07T07:04:50.270Z,5.90
2017-10-07T07:07:18.764Z,6.30
2017-10-07T07:09:46.356Z,12.70
2017-10-07T07:12:15.177Z,6.37
2017-10-07T07:14:42.775Z,10.88
2017-10-07T07:17:10.282Z,5.37
2017-10-07T07:19:37.808Z,7.12
2017-10-07T07:22:06.299Z,10.25
2017-10-07T07:24:33.850Z,7.85
2017-10-07T07:27:02.132Z,6.00
2017-10-07T07:29:30.397Z,9.18
2017-10-07T07:31:58.713Z,7.25
2017-10-07T07:34:26.247Z,8.77
2017-10-07T07:36:53.775Z,6.53
2017-10-07T07:39:21.338Z,9.65
2017-10-07T07:41:49.604Z,5.85
2017-10-07T07:44:17.132Z,10.50
2017-10-07T07:46:44.684Z,11.40
2017-10-07T07:49:12.187Z,5.87
2017-10-07T07:51:39.711Z,10.18
2017-10-07T07:54:07.260Z,6.72
2017-10-07T07:56:34.761Z,8.90
2017-10-07T07:59:03.411Z,7.37
2017-10-07T08:01:31.955Z,5.95
2017-10-07T08:03:59.559Z,4.72
2017-10-07T08:06:27.072Z,9.43
2017-10-07T08:08:55.398Z,7.93
2017-10-07T08:11:24.090Z,8.23
2017-10-07T08:13:52.799Z,9.63
2017-10-07T08:16:20.353Z,8.48
2017-10-07T08:18:47.916Z,7.05
2017-10-07T08:21:15.531Z,6.25
2017-10-07T08:23:54.867Z,8.15
2017-10-07T08:26:22.441Z,6.85
2017-10-07T08:28:49.978Z,4.22
2017-10-07T08:31:17.979Z,4.97
2017-10-07T08:33:46.157Z,5.93
2017-10-07T08:36:13.883Z,9.18
2017-10-07T08:38:41.468Z,6.20
2017-10-07T08:41:09.804Z,4.57
2017-10-07T08:43:38.190Z,8.02
2017-10-07T08:46:05.775Z,10.63
2017-10-07T08:48:33.544Z,11.60
2017-10-07T08:51:01.408Z,6.40
2017-10-07T08:53:29.053Z,8.45
2017-10-07T08:55:58.621Z,13.85
2017-10-07T08:58:26.318Z,9.27
2017-10-07T09:00:54.103Z,11.25
2017-10-07T09:03:21.794Z,8.23
2017-10-07T09:05:49.632Z,12.98
2017-10-07T09:08:19.081Z,9.70
2017-10-07T09:10:47.016Z,7.50
2017-10-07T09:13:14.974Z,9.07
2017-10-07T09:15:44.092Z,10.32
2017-10-07T09:18:12.754Z,10.20
2017-10-07T09:20:41.084Z,5.85
2017-10-07T09:23:09.524Z,7.05
2017-10-07T09:25:38.311Z,12.07
2017-10-07T09:28:06.959Z,8.75
2017-10-07T09:30:35.529Z,8.93
2017-10-07T09:33:04.786Z,7.72
2017-10-07T09:35:34.688Z,7.80
2017-10-07T09:38:02.654Z,11.15
2017-10-07T09:40:31.441Z,10.10
2017-10-07T09:42:59.256Z,9.77
2017-10-07T09:45:28.549Z,7.30
2017-10-07T09:47:57.169Z,10.45
2017-10-07T09:50:25.668Z,6.07
2017-10-07T09:52:54.565Z,6.47
2017-10-07T09:55:23.467Z,8.80
2017-10-07T09:57:52.315Z,7.35
2017-10-07T10:00:20.471Z,15.90
2017-10-07T10:02:50.254Z,9.45
2017-10-07T10:05:18.813Z,10.05
2017-10-07T10:07:48.421Z,8.98
2017-10-07T10:10:17.294Z,8.55
2017-10-07T10:12:46.305Z,9.25
2017-10-07T10:15:15.709Z,7.40
2017-10-07T10:17:44.540Z,9.07
2017-10-07T10:20:13.592Z,9.70
2017-10-07T10:22:41.757Z,7.15
2017-10-07T10:25:09.733Z,11.32
2017-10-07T10:27:38.394Z,7.50
2017-10-07T10:30:07.784Z,8.13
2017-10-07T10:32:35.895Z,7.50
2017-10-07T10:35:04.272Z,6.10
2017-10-07T10:37:34.620Z,8.98
2017-10-07T10:40:02.669Z,8.60
2017-10-07T10:42:31.094Z,8.73
2017-10-07T10:45:00.742Z,8.88
2017-10-07T10:47:29.342Z,9.13
2017-10-07T10:49:58.642Z,10.48
2017-10-07T10:52:27.329Z,6.32
2017-10-07T10:54:56.493Z,9.13
2017-10-07T10:57:25.927Z,10.35
2017-10-07T10:59:54.200Z,8.68
2017-10-07T11:02:23.063Z,10.43
2017-10-07T11:04:51.130Z,10.05
2017-10-07T11:07:20.366Z,8.30
2017-10-07T11:09:48.644Z,11.43
2017-10-07T11:12:17.942Z,14.82
2017-10-07T11:14:47.384Z,6.40
2017-10-07T11:17:16.370Z,19.62
2017-10-07T11:19:44.525Z,11.65
2017-10-07T11:22:14.099Z,10.02
2017-10-07T11:24:44.424Z,12.55
2017-10-07T11:27:13.816Z,9.88
2017-10-07T11:29:42.636Z,11.63
2017-10-07T11:32:10.833Z,13.00
2017-10-07T11:34:38.899Z,9.48
2017-10-07T11:37:07.283Z,8.90
2017-10-07T11:39:36.368Z,11.05
2017-10-07T11:42:05.171Z,11.88
2017-10-07T11:44:34.534Z,7.18
2017-10-07T11:47:03.383Z,7.90
2017-10-07T11:49:32.609Z,7.57
2017-10-07T11:52:02.373Z,9.45
2017-10-07T11:54:31.210Z,8.25
2017-10-07T11:56:58.858Z,11.33
2017-10-07T11:59:26.564Z,17.98
2017-10-07T12:01:54.133Z,10.30
2017-10-07T12:04:21.757Z,10.90
2017-10-07T12:06:51.125Z,10.45
2017-10-07T12:09:18.785Z,9.23
2017-10-07T12:11:46.357Z,13.60
2017-10-07T12:14:14.640Z,7.68
2017-10-07T12:16:42.936Z,10.38
2017-10-07T12:19:10.458Z,9.45
2017-10-07T12:21:38.004Z,13.98
2017-10-07T12:24:06.663Z,14.02
2017-10-07T12:26:35.224Z,13.38
2017-10-07T12:29:02.736Z,8.60
2017-10-07T12:31:30.861Z,12.32
2017-10-07T12:33:59.650Z,11.60
2017-10-07T12:36:27.207Z,8.20
2017-10-07T12:38:56.730Z,10.23
2017-10-07T12:41:24.427Z,9.88
2017-10-07T12:43:52.565Z,9.25
2017-10-07T12:46:20.718Z,5.80
2017-10-07T12:48:49.631Z,14.10
2017-10-07T12:51:17.217Z,9.90
2017-10-07T12:53:44.743Z,8.60
2017-10-07T12:56:12.425Z,7.15
2017-10-07T12:58:40.857Z,11.33
2017-10-07T13:01:09.350Z,8.90
2017-10-07T13:03:36.979Z,9.57
2017-10-07T13:06:04.533Z,8.33
2017-10-07T13:08:32.067Z,8.70
2017-10-07T13:10:59.625Z,6.03
2017-10-07T13:13:28.688Z,8.57
2017-10-07T13:15:57.003Z,7.70
2017-10-07T13:18:24.645Z,10.00
2017-10-07T13:20:52.215Z,8.30
2017-10-07T13:23:21.421Z,11.38
2017-10-07T13:25:49.017Z,9.27
2017-10-07T13:28:16.593Z,12.98
2017-10-07T13:30:44.167Z,8.67
2017-10-07T13:33:11.879Z,7.62
2017-10-07T13:35:40.190Z,8.60
2017-10-07T13:38:08.580Z,4.95
2017-10-07T13:40:36.984Z,8.43
2017-10-07T13:43:04.604Z,6.82
2017-10-07T13:45:32.212Z,9.17
2017-10-07T13:47:59.980Z,8.68
2017-10-07T13:50:27.656Z,10.25
2017-10-07T13:52:55.385Z,4.97
2017-10-07T13:55:23.290Z,6.93
2017-10-07T13:57:51.722Z,9.05
2017-10-07T14:00:19.467Z,7.70
2017-10-07T14:02:47.085Z,9.32
2017-10-07T14:05:14.728Z,11.43
2017-10-07T14:07:42.330Z,12.98
2017-10-07T14:10:10.708Z,7.93
2017-10-07T14:12:39.197Z,12.10
2017-10-07T14:15:07.611Z,13.32
2017-10-07T14:17:35.264Z,9.15
2017-10-07T14:20:03.369Z,8.07
2017-10-07T14:22:31.030Z,13.30
2017-10-07T14:24:58.766Z,8.10
2017-10-07T14:27:26.462Z,8.60
2017-10-07T14:29:54.037Z,13.48
2017-10-07T14:32:21.672Z,6.78
2017-10-07T14:34:49.339Z,13.60
2017-10-07T14:37:16.953Z,10.55
2017-10-07T14:39:45.437Z,11.82
2017-10-07T14:42:13.201Z,16.73
2017-10-07T14:44:40.855Z,12.70
2017-10-07T14:47:09.616Z,4.60
2017-10-07T14:49:37.315Z,11.30
2017-10-07T14:52:05.809Z,6.43
2017-10-07T14:54:33.660Z,7.85
2017-10-07T14:57:01.531Z,5.60
2017-10-07T14:59:29.618Z,8.02
2017-10-07T15:01:58.273Z,6.97
2017-10-07T15:04:26.753Z,7.60
2017-10-07T15:06:55.676Z,8.23
2017-10-07T15:09:23.675Z,7.47
2017-10-07T15:11:51.611Z,7.33
2017-10-07T15:14:19.589Z,8.20
2017-10-07T15:16:47.532Z,9.35
2017-10-07T15:19:16.121Z,10.43
2017-10-07T15:21:43.877Z,12.15
2017-10-07T15:24:11.829Z,8.40
2017-10-07T15:26:39.733Z,9.07
2017-10-07T15:29:07.769Z,6.90
2017-10-07T15:31:36.471Z,8.93
2017-10-07T15:34:04.681Z,9.48
2017-10-07T15:36:32.639Z,13.55
2017-10-07T15:39:00.438Z,11.48
2017-10-07T15:41:35.280Z,9.50
2017-10-07T15:44:06.734Z,10.45
2017-10-07T15:46:36.074Z,13.18
2017-10-07T15:49:04.258Z,8.90
2017-10-07T15:51:34.806Z,8.85
2017-10-07T15:54:07.772Z,11.32
2017-10-07T15:56:36.099Z,8.90
2017-10-07T15:59:07.879Z,13.82
2017-10-07T16:01:36.414Z,7.35
2017-10-07T16:04:04.333Z,7.32
2017-10-07T16:06:32.845Z,10.25
2017-10-07T16:09:00.828Z,10.77
2017-10-07T16:11:34.492Z,11.07
2017-10-07T16:14:02.575Z,6.97
2017-10-07T16:16:31.033Z,8.88
2017-10-07T16:18:58.922Z,7.93
2017-10-07T16:21:26.616Z,10.60
2017-10-07T16:23:54.636Z,7.07
2017-10-07T16:26:22.327Z,8.18
2017-10-07T16:28:50.210Z,7.97
2017-10-07T16:31:17.918Z,6.28
2017-10-07T16:33:45.859Z,5.25
2017-10-07T16:36:13.555Z,7.47
2017-10-07T16:38:41.141Z,8.43
2017-10-07T16:41:09.542Z,11.70
2017-10-07T16:43:37.072Z,5.53
2017-10-07T16:46:04.603Z,8.60
2017-10-07T16:48:32.117Z,9.25
2017-10-07T16:50:59.724Z,8.93
2017-10-07T16:53:27.525Z,6.10
2017-10-07T16:55:55.837Z,7.95
2017-10-07T16:58:23.350Z,9.15
2017-10-07T17:00:50.854Z,6.30
2017-10-07T17:03:18.591Z,7.20
2017-10-07T17:05:46.259Z,5.22
2017-10-07T17:08:13.772Z,6.70
2017-10-07T17:10:41.356Z,6.15
2017-10-07T17:13:09.696Z,8.57
2017-10-07T17:15:37.223Z,7.65
2017-10-07T17:18:04.866Z,7.28
2017-10-07T17:20:32.937Z,6.25
2017-10-07T17:23:01.889Z,6.80
2017-10-07T17:25:29.408Z,9.93
2017-10-07T17:27:57.002Z,10.98
2017-10-07T17:30:24.668Z,5.45
2017-10-07T17:32:53.011Z,9.07
2017-10-07T17:35:20.542Z,6.20
2017-10-07T17:37:48.855Z,5.53
2017-10-07T17:40:16.396Z,3.80
2017-10-07T17:42:44.008Z,5.05
2017-10-07T17:45:12.233Z,6.37
2017-10-07T17:47:39.757Z,5.43
2017-10-07T17:50:07.293Z,5.22
2017-10-07T17:52:34.828Z,8.35
2017-10-07T17:55:02.588Z,10.05
2017-10-07T17:57:30.131Z,8.43
2017-10-07T17:59:58.983Z,11.32
2017-10-07T18:02:26.581Z,8.70
2017-10-07T18:04:54.859Z,6.82
2017-10-07T18:07:23.149Z,8.52
2017-10-07T18:09:50.672Z,7.68
2017-10-07T18:12:18.199Z,7.10
2017-10-07T18:14:45.749Z,11.32
2017-10-07T18:17:13.290Z,12.50
2017-10-07T18:19:40.821Z,10.20
2017-10-07T18:22:09.128Z,8.07
2017-10-07T18:24:36.652Z,10.45
2017-10-07T18:27:04.173Z,10.90
2017-10-07T18:29:31.681Z,8.73
2017-10-07T18:31:59.999Z,7.95
2017-10-07T18:34:27.501Z,6.50
2017-10-07T18:36:55.029Z,13.73
2017-10-07T18:39:22.548Z,7.10
2017-10-07T18:41:50.887Z,10.75
2017-10-07T18:44:18.585Z,9.63
2017-10-07T18:46:46.131Z,6.22
2017-10-07T18:49:14.437Z,12.15
2017-10-07T18:51:41.940Z,7.32
2017-10-07T18:54:09.507Z,9.82
2017-10-07T18:56:39.260Z,6.82
2017-10-07T18:59:06.825Z,9.98
2017-10-07T19:01:34.371Z,7.00
2017-10-07T19:04:02.821Z,9.65
2017-10-07T19:06:31.696Z,9.43
2017-10-07T19:08:59.973Z,16.50
2017-10-07T19:11:31.545Z,10.50
2017-10-07T19:14:00.316Z,9.95
2017-10-07T19:16:28.952Z,11.65
2017-10-07T19:18:57.376Z,9.95
2017-10-07T19:21:25.819Z,12.23
2017-10-07T19:23:53.361Z,12.45
2017-10-07T19:26:21.703Z,17.87
2017-10-07T19:28:50.040Z,12.15
2017-10-07T19:31:17.607Z,11.82
2017-10-07T19:33:45.437Z,13.13
2017-10-07T19:36:13.049Z,13.10
2017-10-07T19:38:41.171Z,15.55
2017-10-07T19:41:09.497Z,18.02
2017-10-07T19:43:37.606Z,20.23
2017-10-07T19:46:05.223Z,21.58
2017-10-07T19:48:34.042Z,28.73
2017-10-07T19:51:02.187Z,29.30
2017-10-07T19:53:29.728Z,33.45
2017-10-07T19:55:57.308Z,33.43
2017-10-07T19:58:24.938Z,41.10
2017-10-07T20:00:52.526Z,33.65
2017-10-07T20:03:20.060Z,41.72
2017-10-07T20:05:47.589Z,34.33
2017-10-07T20:08:15.330Z,47.05
2017-10-07T20:10:43.073Z,42.33
2017-10-07T20:13:10.628Z,58.03
2017-10-07T20:15:38.140Z,46.03
2017-10-07T20:18:05.657Z,51.85
2017-10-07T20:20:33.369Z,50.05
2017-10-07T20:23:01.899Z,63.45
2017-10-07T20:25:29.864Z,62.58
2017-10-07T20:27:57.388Z,51.15
2017-10-07T20:30:25.394Z,56.50
2017-10-07T20:32:53.060Z,57.20
2017-10-07T20:35:20.633Z,50.65
2017-10-07T20:37:49.044Z,58.38
2017-10-07T20:40:16.657Z,62.67
2017-10-07T20:42:44.213Z,59.97
2017-10-07T20:45:11.748Z,56.42
2017-10-07T20:47:39.266Z,79.87
2017-10-07T20:50:06.795Z,66.20
2017-10-07T20:52:34.699Z,60.10
2017-10-07T20:55:02.548Z,55.58
2017-10-07T20:57:30.090Z,57.80
2017-10-07T20:59:58.086Z,68.68
2017-10-07T21:02:26.095Z,43.10
2017-10-07T21:04:54.677Z,56.17
2017-10-07T21:07:22.634Z,66.70
2017-10-07T21:09:50.806Z,71.22
2017-10-07T21:12:18.414Z,65.53
2017-10-07T21:14:45.969Z,64.32
2017-10-07T21:17:13.574Z,50.03
2017-10-07T21:19:42.376Z,63.70
2017-10-07T21:22:11.926Z,56.50
2017-10-07T21:24:40.020Z,61.15
2017-10-07T21:27:07.574Z,66.70
2017-10-07T21:29:36.085Z,62.10
2017-10-07T21:32:03.795Z,81.93
2017-10-07T21:34:32.758Z,65.55
2017-10-07T21:37:01.244Z,74.35
2017-10-07T21:39:28.916Z,66.22
2017-10-07T21:41:56.438Z,71.97
2017-10-07T21:44:23.982Z,60.10
2017-10-07T21:46:52.557Z,62.90
2017-10-07T21:49:20.084Z,54.73
2017-10-07T21:51:47.709Z,67.17
2017-10-07T21:54:15.281Z,68.65
2017-10-07T21:56:43.440Z,73.18
2017-10-07T21:59:10.995Z,59.20
2017-10-07T22:01:39.378Z,88.70
2017-10-07T22:04:07.862Z,66.30
2017-10-07T22:06:36.652Z,70.65
2017-10-07T22:09:05.131Z,80.62
2017-10-07T22:11:32.999Z,72.20
2017-10-07T22:14:00.745Z,68.82
2017-10-07T22:16:29.862Z,50.50
2017-10-07T22:18:58.513Z,75.13
2017-10-07T22:21:26.533Z,63.43
2017-10-07T22:23:54.879Z,67.85
2017-10-07T22:26:22.407Z,82.78
2017-10-07T22:28:50.540Z,86.28
2017-10-07T22:31:19.333Z,89.57
2017-10-07T22:33:48.520Z,69.18
2017-10-07T22:36:16.828Z,79.37
2017-10-07T22:38:44.368Z,81.15
2017-10-07T22:41:11.924Z,79.72
2017-10-07T22:43:40.239Z,91.57
2017-10-07T22:46:07.801Z,81.67
2017-10-07T22:48:36.098Z,76.60
2017-10-07T22:51:04.168Z,93.35
2017-10-07T22:53:32.015Z,85.78
2017-10-07T22:55:59.587Z,75.57
2017-10-07T22:58:28.243Z,75.10
2017-10-07T23:00:56.036Z,86.90
2017-10-07T23:03:23.603Z,83.97
2017-10-07T23:05:51.145Z,79.00
2017-10-07T23:08:18.667Z,87.03
2017-10-07T23:10:46.976Z,76.27
2017-10-07T23:13:14.504Z,101.43
2017-10-07T23:15:43.590Z,69.00
2017-10-07T23:18:11.776Z,84.93
2017-10-07T23:20:39.813Z,83.60
2017-10-07T23:23:07.355Z,65.93
2017-10-07T23:25:34.901Z,67.90
2017-10-07T23:28:02.410Z,70.40
2017-10-07T23:30:29.910Z,76.33
2017-10-07T23:32:57.447Z,54.60
2017-10-07T23:35:24.970Z,63.15
2017-10-07T23:37:53.064Z,70.03
2017-10-07T23:40:20.645Z,62.77
2017-10-07T23:42:48.157Z,70.23
2017-10-07T23:45:15.690Z,61.00
2017-10-07T23:47:44.210Z,66.07
2017-10-07T23:50:12.601Z,67.53
2017-10-07T23:52:40.963Z,60.10
2017-10-07T23:55:08.606Z,60.13
2017-10-07T23:57:37.127Z,68.10
